createdAt,value
2023-04-18T00:00:35.053Z,101391.69
2023-04-18T00:03:04.101Z,101393.38
2023-04-18T00:05:31.794Z,101386.53
2023-04-18T00:07:58.702Z,101394.28
2023-04-18T00:10:25.973Z,101394.22
2023-04-18T00:12:53.088Z,101394.22
2023-04-18T00:15:20.038Z,101399.44
2023-04-18T00:17:48.432Z,101395.22
2023-04-18T00:20:15.484Z,101386.53
2023-04-18T00:22:46.792Z,101393.38
2023-04-18T00:25:15.381Z,101397.72
2023-04-18T00:27:42.318Z,101395.13
2023-04-18T00:30:09.733Z,101397.72
2023-04-18T00:32:38.092Z,101397.75
2023-04-18T00:35:05.781Z,101394.28
2023-04-18T00:37:32.863Z,101391.63
2023-04-18T00:39:59.854Z,101393.38
2023-04-18T00:42:29.027Z,101389.94
2023-04-18T00:44:56.114Z,101387.34
2023-04-18T00:47:23.177Z,101389.88
2023-04-18T00:49:50.374Z,101390.75
2023-04-18T00:52:18.937Z,101380.44
2023-04-18T00:54:47.393Z,101389.81
2023-04-18T00:57:15.140Z,101381.19
2023-04-18T00:59:42.739Z,101376.00
2023-04-18T01:02:09.776Z,101384.53
2023-04-18T01:04:37.517Z,101387.16
2023-04-18T01:07:05.502Z,101393.19
2023-04-18T01:09:32.476Z,101394.06
2023-04-18T01:11:59.464Z,101386.34
2023-04-18T01:14:26.655Z,101393.25
2023-04-18T01:16:53.777Z,101387.19
2023-04-18T01:19:20.946Z,101394.94
2023-04-18T01:21:48.128Z,101394.94
2023-04-18T01:24:17.178Z,101400.09
2023-04-18T01:26:45.985Z,101398.44
2023-04-18T01:29:13.505Z,101388.97
2023-04-18T01:31:41.472Z,101387.91
2023-04-18T01:34:09.207Z,101391.41
2023-04-18T01:36:37.653Z,101395.69
2023-04-18T01:39:05.142Z,101396.59
2023-04-18T01:41:32.992Z,101393.13
2023-04-18T01:44:00.486Z,101398.28
2023-04-18T01:46:28.765Z,101395.75
2023-04-18T01:48:57.080Z,101394.03
2023-04-18T01:51:24.255Z,101388.78
2023-04-18T01:53:53.740Z,101381.84
2023-04-18T01:56:21.129Z,101383.56
2023-04-18T01:58:48.197Z,101379.22
2023-04-18T02:01:15.355Z,101393.88
2023-04-18T02:03:42.476Z,101391.28
2023-04-18T02:06:10.275Z,101396.44
2023-04-18T02:08:37.395Z,101397.25
2023-04-18T02:11:07.453Z,101393.81
2023-04-18T02:13:34.563Z,101393.81
2023-04-18T02:16:11.505Z,101392.91
2023-04-18T02:18:40.243Z,101386.00
2023-04-18T02:21:07.400Z,101390.28
2023-04-18T02:23:34.342Z,101382.53
2023-04-18T02:26:01.469Z,101391.16
2023-04-18T02:28:28.452Z,101385.94
2023-04-18T02:30:56.074Z,101386.75
2023-04-18T02:33:23.030Z,101387.56
2023-04-18T02:35:52.398Z,101391.03
2023-04-18T02:38:19.384Z,101394.47
2023-04-18T02:40:46.369Z,101394.47
2023-04-18T02:43:13.332Z,101384.13
2023-04-18T02:45:40.349Z,101392.72
2023-04-18T02:48:07.593Z,101385.78
2023-04-18T02:50:35.646Z,101390.13
2023-04-18T02:53:02.826Z,101396.13
2023-04-18T02:55:41.650Z,101399.56
2023-04-18T02:58:08.760Z,101391.75
2023-04-18T03:00:53.616Z,101381.38
2023-04-18T03:03:38.704Z,101390.00
2023-04-18T03:06:22.882Z,101394.28
2023-04-18T03:08:50.103Z,101390.81
2023-04-18T03:11:17.159Z,101376.88
2023-04-18T03:13:44.958Z,101391.63
2023-04-18T03:16:12.634Z,101396.78
2023-04-18T03:18:40.075Z,101390.81
2023-04-18T03:21:07.320Z,101393.41
2023-04-18T03:23:34.916Z,101383.16
2023-04-18T03:26:06.561Z,101384.13
2023-04-18T03:28:35.586Z,101384.00
2023-04-18T03:31:02.809Z,101391.84
2023-04-18T03:33:31.028Z,101399.63
2023-04-18T03:36:06.955Z,101394.47
2023-04-18T03:38:34.181Z,101386.75
2023-04-18T03:41:01.150Z,101399.63
2023-04-18T03:43:33.272Z,101397.88
2023-04-18T03:46:00.581Z,101391.03
2023-04-18T03:48:29.185Z,101399.69
2023-04-18T03:50:59.998Z,101388.56
2023-04-18T03:53:27.366Z,101387.56
2023-04-18T03:55:56.840Z,101400.53
2023-04-18T03:58:32.195Z,101400.53
2023-04-18T04:01:01.170Z,101400.44
2023-04-18T04:03:29.674Z,101404.78
2023-04-18T04:05:57.061Z,101403.03
2023-04-18T04:08:25.095Z,101405.59
2023-04-18T04:10:53.413Z,101405.63
2023-04-18T04:13:20.643Z,101413.31
2023-04-18T04:15:48.966Z,101411.59
2023-04-18T04:18:15.945Z,101403.91
2023-04-18T04:20:46.118Z,101404.78
2023-04-18T04:23:19.692Z,101415.91
2023-04-18T04:25:48.243Z,101403.03
2023-04-18T04:28:28.863Z,101414.19
2023-04-18T04:31:00.871Z,101415.03
2023-04-18T04:33:33.411Z,101421.91
2023-04-18T04:36:04.781Z,101420.22
2023-04-18T04:38:33.536Z,101411.66
2023-04-18T04:41:00.579Z,101413.41
2023-04-18T04:43:28.920Z,101423.72
2023-04-18T04:45:57.819Z,101415.13
2023-04-18T04:48:25.158Z,101423.72
2023-04-18T04:50:59.039Z,101420.28
2023-04-18T04:53:28.576Z,101428.06
2023-04-18T04:55:55.826Z,101432.31
2023-04-18T04:58:23.119Z,101421.06
2023-04-18T05:01:25.814Z,101418.53
2023-04-18T05:03:53.872Z,101430.72
2023-04-18T05:06:22.638Z,101425.56
2023-04-18T05:08:50.678Z,101427.31
2023-04-18T05:11:18.223Z,101422.97
2023-04-18T05:13:45.465Z,101425.59
2023-04-18T05:16:12.460Z,101420.47
2023-04-18T05:18:41.181Z,101429.09
2023-04-18T05:21:08.141Z,101423.09
2023-04-18T05:23:37.209Z,101425.75
2023-04-18T05:26:05.691Z,101420.66
2023-04-18T05:28:33.058Z,101422.44
2023-04-18T05:31:02.898Z,101420.72
2023-04-18T05:33:33.020Z,101417.31
2023-04-18T05:36:00.224Z,101425.97
2023-04-18T05:38:27.217Z,101427.72
2023-04-18T05:40:56.019Z,101422.56
2023-04-18T05:43:23.608Z,101416.53
2023-04-18T05:45:52.623Z,101424.28
2023-04-18T05:48:20.227Z,101425.22
2023-04-18T05:50:47.578Z,101415.75
2023-04-18T05:53:14.816Z,101403.78
2023-04-18T05:55:42.131Z,101405.53
2023-04-18T05:58:09.266Z,101422.88
2023-04-18T06:00:36.400Z,101415.97
2023-04-18T06:03:03.649Z,101424.72
2023-04-18T06:05:31.360Z,101418.75
2023-04-18T06:07:58.880Z,101426.53
2023-04-18T06:10:25.987Z,101425.78
2023-04-18T06:12:53.088Z,101425.84
2023-04-18T06:15:20.183Z,101431.97
2023-04-18T06:17:47.345Z,101428.63
2023-04-18T06:20:14.527Z,101435.56
2023-04-18T06:22:41.826Z,101428.72
2023-04-18T06:25:10.176Z,101433.13
2023-04-18T06:27:40.346Z,101437.50
2023-04-18T06:30:08.432Z,101440.97
2023-04-18T06:32:35.875Z,101437.53
2023-04-18T06:35:02.991Z,101436.72
2023-04-18T06:37:30.139Z,101438.44
2023-04-18T06:39:57.308Z,101451.38
2023-04-18T06:42:24.535Z,101448.88
2023-04-18T06:44:51.655Z,101446.31
2023-04-18T06:47:18.872Z,101453.28
2023-04-18T06:49:45.975Z,101460.25
2023-04-18T06:52:13.273Z,101455.16
2023-04-18T06:54:40.433Z,101452.56
2023-04-18T06:57:07.536Z,101447.50
2023-04-18T06:59:35.775Z,101446.63
2023-04-18T07:02:02.843Z,101462.22
2023-04-18T07:04:30.011Z,101453.69
2023-04-18T07:06:57.232Z,101448.47
2023-04-18T07:09:24.343Z,101451.13
2023-04-18T07:11:52.853Z,101464.13
2023-04-18T07:14:24.588Z,101465.03
2023-04-18T07:16:52.371Z,101464.25
2023-04-18T07:19:19.504Z,101464.28
2023-04-18T07:21:46.700Z,101468.63
2023-04-18T07:24:14.109Z,101466.00
2023-04-18T07:26:41.697Z,101469.47
2023-04-18T07:29:08.851Z,101475.59
2023-04-18T07:31:36.250Z,101478.22
2023-04-18T07:34:03.477Z,101479.94
2023-04-18T07:36:31.605Z,101467.88
2023-04-18T07:38:58.698Z,101473.13
2023-04-18T07:41:25.742Z,101478.28
2023-04-18T07:43:52.836Z,101483.44
2023-04-18T07:46:20.053Z,101486.91
2023-04-18T07:48:47.130Z,101485.25
2023-04-18T07:51:14.321Z,101477.53
2023-04-18T07:53:41.463Z,101469.88
2023-04-18T07:56:08.749Z,101486.25
2023-04-18T07:58:36.376Z,101478.59
2023-04-18T08:01:03.542Z,101480.44
2023-04-18T08:03:30.765Z,101478.81
2023-04-18T08:05:58.092Z,101485.81
2023-04-18T08:08:25.032Z,101482.38
2023-04-18T08:10:52.194Z,101488.56
2023-04-18T08:13:19.334Z,101492.94
2023-04-18T08:15:47.141Z,101479.13
2023-04-18T08:18:14.251Z,101497.34
2023-04-18T08:20:41.556Z,101491.41
2023-04-18T08:23:11.319Z,101479.34
2023-04-18T08:25:39.883Z,101491.53
2023-04-18T08:28:07.136Z,101488.09
2023-04-18T08:30:34.323Z,101481.22
2023-04-18T08:33:02.016Z,101489.84
2023-04-18T08:35:29.066Z,101486.44
2023-04-18T08:37:56.016Z,101496.88
2023-04-18T08:40:23.193Z,101478.78
2023-04-18T08:42:53.012Z,101486.56
2023-04-18T08:45:21.074Z,101484.91
2023-04-18T08:47:48.189Z,101488.44
2023-04-18T08:50:15.324Z,101485.94
2023-04-18T08:52:48.262Z,101479.06
2023-04-18T08:55:16.330Z,101481.72
2023-04-18T08:57:44.292Z,101488.63
2023-04-18T09:00:11.984Z,101492.09
2023-04-18T09:02:45.208Z,101497.31
2023-04-18T09:05:22.854Z,101480.88
2023-04-18T09:07:51.878Z,101494.75
2023-04-18T09:10:36.755Z,101486.97
2023-04-18T09:13:04.469Z,101483.47
2023-04-18T09:15:31.716Z,101490.41
2023-04-18T09:18:02.560Z,101486.09
2023-04-18T09:20:41.493Z,101486.13
2023-04-18T09:23:14.903Z,101487.03
2023-04-18T09:25:44.477Z,101481.88
2023-04-18T09:28:25.138Z,101487.09
2023-04-18T09:30:52.872Z,101481.03
2023-04-18T09:33:33.753Z,101477.69
2023-04-18T09:36:23.509Z,101487.22
2023-04-18T09:38:56.045Z,101488.94
2023-04-18T09:41:23.841Z,101468.25
2023-04-18T09:44:07.833Z,101484.66
2023-04-18T09:46:34.875Z,101492.50
2023-04-18T09:49:02.355Z,101482.13
2023-04-18T09:51:33.896Z,101483.84
2023-04-18T09:54:01.873Z,101486.44
2023-04-18T09:56:32.070Z,101474.34
2023-04-18T09:59:41.762Z,101485.59
2023-04-18T10:02:21.145Z,101470.06
2023-04-18T10:04:53.765Z,101475.28
2023-04-18T10:07:21.179Z,101473.53
2023-04-18T10:09:49.530Z,101468.38
2023-04-18T10:12:18.661Z,101470.13
2023-04-18T10:14:46.005Z,101471.88
2023-04-18T10:17:14.994Z,101471.88
2023-04-18T10:19:44.421Z,101468.41
2023-04-18T10:22:12.475Z,101463.22
2023-04-18T10:24:50.320Z,101470.16
2023-04-18T10:27:18.439Z,101463.22
2023-04-18T10:29:54.859Z,101464.06
2023-04-18T10:32:24.747Z,101456.31
2023-04-18T10:34:53.648Z,101458.00
2023-04-18T10:37:20.694Z,101454.53
2023-04-18T10:39:58.693Z,101457.13
2023-04-18T10:42:47.401Z,101458.00
2023-04-18T10:45:24.951Z,101453.69
2023-04-18T10:48:30.399Z,101456.25
2023-04-18T10:51:18.011Z,101454.53
2023-04-18T10:53:57.786Z,101461.44
2023-04-18T10:56:26.250Z,101464.94
2023-04-18T10:58:54.009Z,101459.78
2023-04-18T11:01:32.146Z,101464.97
2023-04-18T11:04:00.509Z,101462.34
2023-04-18T11:06:28.043Z,101454.56
2023-04-18T11:09:14.759Z,101457.16
2023-04-18T11:11:42.606Z,101462.34
2023-04-18T11:14:10.207Z,101449.38
2023-04-18T11:16:37.350Z,101461.47
2023-04-18T11:19:25.989Z,101451.09
2023-04-18T11:21:53.163Z,101446.78
2023-04-18T11:24:24.542Z,101452.84
2023-04-18T11:26:56.184Z,101452.81
2023-04-18T11:29:23.491Z,101445.91
2023-04-18T11:31:56.883Z,101445.88
2023-04-18T11:34:30.925Z,101445.91
2023-04-18T11:36:58.859Z,101437.22
2023-04-18T11:39:26.059Z,101445.88
2023-04-18T11:41:53.458Z,101443.31
2023-04-18T11:44:24.978Z,101441.53
2023-04-18T11:46:55.369Z,101438.94
2023-04-18T11:49:30.557Z,101436.31
2023-04-18T11:51:58.143Z,101431.94
2023-04-18T11:54:42.661Z,101435.38
2023-04-18T11:57:20.653Z,101439.66
2023-04-18T11:59:52.611Z,101433.63
2023-04-18T12:02:21.334Z,101435.38
2023-04-18T12:04:52.204Z,101430.19
2023-04-18T12:07:41.005Z,101433.63
2023-04-18T12:10:20.244Z,101433.63
2023-04-18T12:12:52.160Z,101428.38
2023-04-18T12:15:19.639Z,101430.13
2023-04-18T12:17:53.820Z,101434.47
2023-04-18T12:20:24.893Z,101424.94
2023-04-18T12:22:53.222Z,101428.44
2023-04-18T12:25:27.287Z,101421.44
2023-04-18T12:27:59.086Z,101416.25
2023-04-18T12:30:31.962Z,101414.47
2023-04-18T12:33:01.434Z,101412.72
2023-04-18T12:35:30.269Z,101413.66
2023-04-18T12:37:59.388Z,101402.38
2023-04-18T12:40:27.148Z,101408.41
2023-04-18T12:42:54.912Z,101407.47
2023-04-18T12:45:23.567Z,101399.59
2023-04-18T12:47:52.244Z,101398.72
2023-04-18T12:50:24.458Z,101402.25
2023-04-18T12:52:56.071Z,101400.53
2023-04-18T12:55:23.222Z,101395.34
2023-04-18T12:57:54.475Z,101400.53
2023-04-18T13:00:23.720Z,101393.53
2023-04-18T13:02:52.608Z,101393.44
2023-04-18T13:05:21.751Z,101392.56
2023-04-18T13:07:49.915Z,101391.69
2023-04-18T13:10:19.778Z,101383.91
2023-04-18T13:12:47.370Z,101381.31
2023-04-18T13:15:15.945Z,101389.97
2023-04-18T13:17:43.860Z,101377.81
2023-04-18T13:20:13.014Z,101376.09
2023-04-18T13:22:41.355Z,101367.41
2023-04-18T13:25:10.814Z,101366.53
2023-04-18T13:27:41.445Z,101361.34
2023-04-18T13:30:11.124Z,101363.97
2023-04-18T13:32:39.369Z,101370.94
2023-04-18T13:35:09.278Z,101372.69
2023-04-18T13:37:36.858Z,101370.13
2023-04-18T13:40:06.624Z,101356.28
2023-04-18T13:42:34.632Z,101370.13
2023-04-18T13:45:01.766Z,101358.00
2023-04-18T13:47:30.079Z,101358.84
2023-04-18T13:49:58.009Z,101356.19
2023-04-18T13:52:26.155Z,101353.56
2023-04-18T13:54:53.343Z,101357.00
2023-04-18T13:57:20.464Z,101351.78
2023-04-18T13:59:47.543Z,101355.25
2023-04-18T14:02:14.995Z,101349.19
2023-04-18T14:04:42.311Z,101349.31
2023-04-18T14:07:09.727Z,101357.13
2023-04-18T14:09:36.739Z,101359.75
2023-04-18T14:12:03.963Z,101357.16
2023-04-18T14:14:31.013Z,101351.09
2023-04-18T14:16:58.137Z,101353.69
2023-04-18T14:19:26.821Z,101349.31
2023-04-18T14:21:53.780Z,101353.63
2023-04-18T14:24:20.875Z,101344.09
2023-04-18T14:26:48.196Z,101352.75
2023-04-18T14:29:15.576Z,101360.59
2023-04-18T14:31:42.909Z,101357.16
2023-04-18T14:34:10.032Z,101352.84
2023-04-18T14:36:37.132Z,101349.34
2023-04-18T14:39:04.840Z,101345.88
2023-04-18T14:41:32.008Z,101346.75
2023-04-18T14:43:59.556Z,101338.09
2023-04-18T14:46:28.399Z,101346.78
2023-04-18T14:48:55.504Z,101336.38
2023-04-18T14:51:23.322Z,101330.31
2023-04-18T14:53:50.508Z,101326.78
2023-04-18T14:56:21.153Z,101330.22
2023-04-18T14:58:48.687Z,101325.88
2023-04-18T15:01:17.629Z,101305.13
2023-04-18T15:03:45.512Z,101320.66
2023-04-18T15:06:12.801Z,101327.53
2023-04-18T15:08:39.848Z,101325.81
2023-04-18T15:11:08.274Z,101324.03
2023-04-18T15:13:35.716Z,101317.94
2023-04-18T15:16:03.183Z,101317.06
2023-04-18T15:18:30.324Z,101304.91
2023-04-18T15:21:00.201Z,101311.81
2023-04-18T15:23:28.459Z,101310.03
2023-04-18T15:25:55.455Z,101316.97
2023-04-18T15:28:23.096Z,101315.28
2023-04-18T15:30:50.104Z,101321.41
2023-04-18T15:33:19.170Z,101321.47
2023-04-18T15:35:47.738Z,101334.56
2023-04-18T15:38:14.853Z,101322.50
2023-04-18T15:40:43.622Z,101317.41
2023-04-18T15:43:10.727Z,101327.81
2023-04-18T15:45:37.734Z,101317.47
2023-04-18T15:48:04.950Z,101317.50
2023-04-18T15:50:33.589Z,101322.69
2023-04-18T15:53:00.893Z,101314.94
2023-04-18T15:55:27.986Z,101324.47
2023-04-18T15:57:55.212Z,101327.13
2023-04-18T16:00:23.399Z,101330.56
2023-04-18T16:02:50.880Z,101331.44
2023-04-18T16:05:18.457Z,101328.88
2023-04-18T16:07:45.513Z,101322.81
2023-04-18T16:10:12.993Z,101328.91
2023-04-18T16:12:40.429Z,101324.56
2023-04-18T16:15:09.610Z,101327.19
2023-04-18T16:17:38.050Z,101328.94
2023-04-18T16:20:09.289Z,101327.19
2023-04-18T16:22:37.143Z,101331.53
2023-04-18T16:25:04.988Z,101328.09
2023-04-18T16:27:33.194Z,101327.25
2023-04-18T16:30:00.432Z,101328.09
2023-04-18T16:32:27.493Z,101340.22
2023-04-18T16:34:54.551Z,101333.31
2023-04-18T16:37:21.576Z,101331.59
2023-04-18T16:39:48.642Z,101336.78
2023-04-18T16:42:16.093Z,101335.06
2023-04-18T16:44:44.869Z,101339.38
2023-04-18T16:47:11.942Z,101343.72
2023-04-18T16:49:39.068Z,101340.25
2023-04-18T16:52:06.089Z,101337.66
2023-04-18T16:54:33.096Z,101342.88
2023-04-18T16:57:00.106Z,101343.75
2023-04-18T16:59:27.327Z,101348.97
2023-04-18T17:01:54.363Z,101352.41
2023-04-18T17:04:22.113Z,101347.22
2023-04-18T17:06:51.878Z,101352.44
2023-04-18T17:09:19.967Z,101354.16
2023-04-18T17:11:47.187Z,101354.16
2023-04-18T17:14:14.724Z,101354.19
2023-04-18T17:16:42.803Z,101356.78
2023-04-18T17:19:10.561Z,101359.38
2023-04-18T17:21:38.026Z,101361.09
2023-04-18T17:24:07.121Z,101357.63
2023-04-18T17:26:35.564Z,101351.56
2023-04-18T17:29:04.396Z,101360.25
2023-04-18T17:31:32.390Z,101372.38
2023-04-18T17:33:59.918Z,101362.84
2023-04-18T17:36:27.349Z,101361.13
2023-04-18T17:38:54.519Z,101360.25
2023-04-18T17:41:22.094Z,101366.31
2023-04-18T17:43:53.634Z,101355.91
2023-04-18T17:46:20.721Z,101362.84
2023-04-18T17:48:47.770Z,101358.47
2023-04-18T17:51:16.600Z,101363.69
2023-04-18T17:53:43.792Z,101369.72
2023-04-18T17:56:11.021Z,101369.72
2023-04-18T17:58:37.998Z,101373.16
2023-04-18T18:01:14.747Z,101373.16
2023-04-18T18:03:43.940Z,101363.66
2023-04-18T18:06:14.889Z,101368.81
2023-04-18T18:08:43.403Z,101373.16
2023-04-18T18:11:10.853Z,101376.56
2023-04-18T18:13:41.410Z,101376.56
2023-04-18T18:16:09.092Z,101384.31
2023-04-18T18:18:36.996Z,101379.13
2023-04-18T18:21:04.092Z,101380.00
2023-04-18T18:23:31.243Z,101388.59
2023-04-18T18:25:58.761Z,101386.88
2023-04-18T18:28:25.821Z,101383.41
2023-04-18T18:30:53.818Z,101379.91
2023-04-18T18:33:20.891Z,101383.38
2023-04-18T18:35:48.168Z,101387.66
2023-04-18T18:38:15.265Z,101385.03
2023-04-18T18:40:42.253Z,101385.00
2023-04-18T18:43:09.264Z,101391.91
2023-04-18T18:45:36.264Z,101386.69
2023-04-18T18:48:04.193Z,101392.75
2023-04-18T18:50:31.241Z,101395.34
2023-04-18T18:52:58.338Z,101385.78
2023-04-18T18:55:25.362Z,101386.66
2023-04-18T18:57:52.291Z,101385.78
2023-04-18T19:00:19.598Z,101384.88
2023-04-18T19:02:46.824Z,101391.81
2023-04-18T19:05:14.210Z,101381.41
2023-04-18T19:07:42.549Z,101393.53
2023-04-18T19:10:10.847Z,101386.59
2023-04-18T19:12:38.561Z,101383.13
2023-04-18T19:15:06.534Z,101379.69
2023-04-18T19:17:33.636Z,101388.31
2023-04-18T19:20:01.715Z,101372.72
2023-04-18T19:22:29.631Z,101381.34
2023-04-18T19:24:57.418Z,101377.00
2023-04-18T19:27:24.482Z,101379.56
2023-04-18T19:29:51.540Z,101381.25
2023-04-18T19:32:18.577Z,101382.97
2023-04-18T19:34:45.779Z,101383.81
2023-04-18T19:37:12.921Z,101372.56
2023-04-18T19:39:39.882Z,101377.75
2023-04-18T19:42:07.614Z,101369.97
2023-04-18T19:44:35.001Z,101369.13
2023-04-18T19:47:02.077Z,101376.81
2023-04-18T19:49:29.080Z,101375.94
2023-04-18T19:51:56.124Z,101372.50
2023-04-18T19:54:23.171Z,101369.00
2023-04-18T19:56:50.516Z,101360.34
2023-04-18T19:59:17.568Z,101370.66
2023-04-18T20:01:44.721Z,101368.91
2023-04-18T20:04:12.040Z,101369.78
2023-04-18T20:06:39.218Z,101355.03
2023-04-18T20:09:06.481Z,101366.28
2023-04-18T20:11:33.763Z,101367.13
2023-04-18T20:14:01.180Z,101359.34
2023-04-18T20:16:28.249Z,101358.47
2023-04-18T20:18:55.273Z,101357.59
2023-04-18T20:21:22.341Z,101355.81
2023-04-18T20:23:49.340Z,101353.25
2023-04-18T20:26:16.339Z,101354.09
2023-04-18T20:28:43.297Z,101351.50
2023-04-18T20:31:12.030Z,101348.06
2023-04-18T20:33:39.017Z,101349.78
2023-04-18T20:36:06.757Z,101347.16
2023-04-18T20:38:34.086Z,101342.81
2023-04-18T20:41:01.177Z,101350.56
2023-04-18T20:43:28.844Z,101347.91
2023-04-18T20:45:57.963Z,101342.69
2023-04-18T20:48:25.107Z,101356.50
2023-04-18T20:50:52.229Z,101340.97
2023-04-18T20:53:21.199Z,101344.38
2023-04-18T20:55:49.005Z,101346.97
2023-04-18T20:58:16.297Z,101345.13
2023-04-18T21:00:44.754Z,101349.38
2023-04-18T21:03:15.729Z,101332.91
2023-04-18T21:05:43.902Z,101340.63
2023-04-18T21:08:13.585Z,101332.78
2023-04-18T21:10:40.640Z,101338.81
2023-04-18T21:13:09.376Z,101343.94
2023-04-18T21:15:36.485Z,101330.13
2023-04-18T21:18:03.674Z,101330.06
2023-04-18T21:20:30.868Z,101326.53
2023-04-18T21:22:57.905Z,101317.84
2023-04-18T21:25:24.935Z,101324.63
2023-04-18T21:27:52.018Z,101328.00
2023-04-18T21:30:19.162Z,101316.75
2023-04-18T21:32:47.458Z,101315.78
2023-04-18T21:35:15.633Z,101322.72
2023-04-18T21:37:43.498Z,101317.50
2023-04-18T21:40:10.931Z,101312.25
2023-04-18T21:42:38.072Z,101298.25
2023-04-18T21:45:06.448Z,101306.91
2023-04-18T21:47:33.500Z,101313.75
2023-04-18T21:50:00.465Z,101310.25
2023-04-18T21:52:27.417Z,101305.03
2023-04-18T21:54:54.468Z,101315.31
2023-04-18T21:57:21.423Z,101307.53
2023-04-18T21:59:48.407Z,101308.44
2023-04-18T22:02:15.662Z,101296.31
2023-04-18T22:04:42.949Z,101290.22
2023-04-18T22:07:11.515Z,101296.28
2023-04-18T22:09:38.744Z,101292.72
2023-04-18T22:12:05.893Z,101295.38
2023-04-18T22:14:32.908Z,101292.75
2023-04-18T22:17:03.430Z,101280.66
2023-04-18T22:19:31.524Z,101286.59
2023-04-18T22:21:58.935Z,101285.75
2023-04-18T22:24:26.244Z,101294.28
2023-04-18T22:26:53.624Z,101282.19
2023-04-18T22:29:20.596Z,101287.34
2023-04-18T22:31:47.673Z,101283.88
2023-04-18T22:34:14.912Z,101279.53
2023-04-18T22:36:43.956Z,101265.75
2023-04-18T22:39:12.282Z,101264.84
2023-04-18T22:41:39.271Z,101263.09
2023-04-18T22:44:06.298Z,101268.38
2023-04-18T22:46:33.472Z,101261.50
2023-04-18T22:49:00.759Z,101276.09
2023-04-18T22:51:28.853Z,101262.28
2023-04-18T22:53:56.488Z,101256.19
2023-04-18T22:56:23.626Z,101256.06
2023-04-18T22:58:50.733Z,101252.59
2023-04-18T23:01:18.095Z,101250.84
2023-04-18T23:03:45.244Z,101252.53
2023-04-18T23:06:12.447Z,101236.09
2023-04-18T23:08:39.487Z,101236.91
2023-04-18T23:11:06.506Z,101237.75
2023-04-18T23:13:33.477Z,101240.38
2023-04-18T23:16:00.536Z,101238.66
2023-04-18T23:18:30.213Z,101230.88
2023-04-18T23:20:57.239Z,101219.69
2023-04-18T23:23:24.235Z,101230.03
2023-04-18T23:25:51.224Z,101220.50
2023-04-18T23:28:18.733Z,101211.81
2023-04-18T23:30:46.432Z,101214.31
2023-04-18T23:33:14.033Z,101215.13
2023-04-18T23:35:41.215Z,101212.50
2023-04-18T23:38:08.858Z,101208.06
2023-04-18T23:40:36.227Z,101216.72
2023-04-18T23:43:03.530Z,101216.72
2023-04-18T23:45:31.259Z,101210.66
2023-04-18T23:47:58.475Z,101210.56
2023-04-18T23:50:25.945Z,101201.88
2023-04-18T23:52:53.146Z,101196.63
2023-04-18T23:55:20.515Z,101186.34
2023-04-18T23:57:47.764Z,101192.22
